French, Indiana
Current Conditions -  °F | °C
As of 3:55 AM on Wednesday 22 Oct 2014 (Local Time) from KHHG Reporting Station
Clear Clear  
Wind Chill: 36°   Ceiling: Unl
Heat Index: 36°   Visibility: 10mi
Dew Point: 35°   Wind: 0mph
Humidity: 95%   Direction: NA
Pressure: 30.24"   Gusts: NA
Location:  40.7175°N, 85.1549°W
Report Text: KHHG 220755Z AUTO 00000KT 10SM CLR 02/02 A3024 RMK AO2 T00220015
Loading
Personal Weather Stations






























Interactive Weather Map
Tropical Storm Tracking
New forecast layout! Learn more

10-Day Weather Forecast

Advertisements
Track Severe Weather on mobile